Time;durP1;ratioP1;P1;durP2;ratioP2;P2;SDS_P1;SDS_P2;PMS_P1;PMS_P2;Temp;Humidity;BMP_temperature;BMP_pressure;BME280_temperature;BME280_humidity;BME280_pressure;Samples;Min_cycle;Max_cycle;Signal;HPM_P1;HPM_P2
2022/09/07 00:00:40;;;;;;;8.65;7.22;;;;;;;;;;5043567;28;20538;-75
2022/09/07 00:03:05;;;;;;;9.82;7.18;;;;;;;;;;5045621;28;20439;-77
2022/09/07 00:05:31;;;;;;;8.90;6.82;;;;;;;;;;5043331;28;20036;-76
2022/09/07 00:07:56;;;;;;;8.25;7.28;;;;;;;;;;5054551;28;20025;-78
2022/09/07 00:10:22;;;;;;;8.30;6.97;;;;;;;;;;5054016;28;20033;-76
2022/09/07 00:12:49;;;;;;;8.20;7.43;;;;;;;;;;5048409;28;20029;-77
2022/09/07 00:15:15;;;;;;;8.75;7.45;;;;;;;;;;5038645;28;20025;-77
2022/09/07 00:17:41;;;;;;;8.02;7.22;;;;;;;;;;5043980;28;20029;-78
2022/09/07 00:20:07;;;;;;;8.18;7.38;;;;;;;;;;5042185;28;20375;-77
2022/09/07 00:22:32;;;;;;;8.75;7.03;;;;;;;;;;5037761;28;20024;-77
2022/09/07 00:24:58;;;;;;;8.35;7.47;;;;;;;;;;5054026;28;20051;-78
2022/09/07 00:27:23;;;;;;;8.38;7.53;;;;;;;;;;5047481;28;20043;-76
2022/09/07 00:29:48;;;;;;;7.60;6.90;;;;;;;;;;5058458;28;23391;-76
2022/09/07 00:32:14;;;;;;;7.95;6.97;;;;;;;;;;5056436;28;20094;-76
2022/09/07 00:34:40;;;;;;;7.40;6.60;;;;;;;;;;5045940;28;20039;-74
2022/09/07 00:37:05;;;;;;;8.15;7.38;;;;;;;;;;5039933;28;20033;-76
2022/09/07 00:39:31;;;;;;;8.15;7.47;;;;;;;;;;5058257;28;20021;-75
2022/09/07 00:41:56;;;;;;;7.85;7.13;;;;;;;;;;5058194;28;20045;-76
2022/09/07 00:44:40;;;;;;;7.72;7.03;;;;;;;;;;5058314;28;20052;-76
2022/09/07 00:47:07;;;;;;;7.47;6.50;;;;;;;;;;5027506;28;20403;-75
2022/09/07 00:49:32;;;;;;;7.15;6.53;;;;;;;;;;5044277;28;20057;-76
2022/09/07 00:51:59;;;;;;;7.97;6.90;;;;;;;;;;5055258;28;20067;-75
2022/09/07 00:54:33;;;;;;;9.30;7.47;;;;;;;;;;5043362;28;20028;-77
2022/09/07 00:56:58;;;;;;;8.27;7.20;;;;;;;;;;5042310;28;20107;-74
2022/09/07 00:59:27;;;;;;;7.47;6.82;;;;;;;;;;5052729;28;20431;-74
2022/09/07 01:01:53;;;;;;;8.27;7.50;;;;;;;;;;5056420;28;20119;-75
2022/09/07 01:04:19;;;;;;;7.95;7.25;;;;;;;;;;5042477;28;20528;-75
2022/09/07 01:06:44;;;;;;;7.25;6.65;;;;;;;;;;5033750;28;20041;-77
2022/09/07 01:09:15;;;;;;;7.75;6.95;;;;;;;;;;5056792;28;20043;-74
2022/09/07 01:11:44;;;;;;;8.20;7.50;;;;;;;;;;5053951;28;20027;-79
2022/09/07 01:14:13;;;;;;;9.63;7.32;;;;;;;;;;5042162;28;20345;-76
2022/09/07 01:16:44;;;;;;;10.95;7.22;;;;;;;;;;5043731;28;20041;-78
2022/09/07 01:19:09;;;;;;;8.48;7.28;;;;;;;;;;5050916;28;20052;-76
2022/09/07 01:21:44;;;;;;;8.40;6.97;;;;;;;;;;5049922;28;20056;-76
2022/09/07 01:24:18;;;;;;;7.97;7.18;;;;;;;;;;5042262;28;20024;-75
2022/09/07 01:26:50;;;;;;;8.68;7.47;;;;;;;;;;5049477;28;20057;-76
2022/09/07 01:29:18;;;;;;;7.80;7.03;;;;;;;;;;5049023;28;20115;-77
2022/09/07 01:32:04;;;;;;;8.13;7.43;;;;;;;;;;5058530;28;20025;-77
2022/09/07 01:34:30;;;;;;;8.52;7.60;;;;;;;;;;5055541;28;20059;-77
2022/09/07 01:37:04;;;;;;;8.23;7.43;;;;;;;;;;5037820;28;20028;-78
2022/09/07 01:39:34;;;;;;;8.48;7.65;;;;;;;;;;5043557;28;20021;-74
2022/09/07 01:42:25;;;;;;;10.75;7.72;;;;;;;;;;5032457;28;20045;-76
2022/09/07 01:44:58;;;;;;;9.75;8.10;;;;;;;;;;4991612;28;20065;-75
2022/09/07 01:47:44;;;;;;;8.27;7.57;;;;;;;;;;4979802;28;20061;-78
2022/09/07 01:50:15;;;;;;;8.57;7.68;;;;;;;;;;4984259;28;20046;-76
2022/09/07 01:52:43;;;;;;;8.20;7.32;;;;;;;;;;4978984;28;20360;-77
2022/09/07 01:55:28;;;;;;;7.82;7.10;;;;;;;;;;4982701;28;20123;-78
2022/09/07 01:57:56;;;;;;;8.23;7.45;;;;;;;;;;4984861;28;22951;-78
2022/09/07 02:00:22;;;;;;;8.57;7.60;;;;;;;;;;4991582;28;20038;-76
2022/09/07 02:02:53;;;;;;;8.25;7.45;;;;;;;;;;4985240;28;20330;-77
2022/09/07 02:05:29;;;;;;;9.90;7.28;;;;;;;;;;4991177;28;20037;-77
2022/09/07 02:08:12;;;;;;;7.38;6.68;;;;;;;;;;4984378;28;20620;-76
2022/09/07 02:10:52;;;;;;;7.75;7.10;;;;;;;;;;4992385;28;20061;-77
2022/09/07 02:13:39;;;;;;;7.45;6.68;;;;;;;;;;4983065;28;20045;-75
2022/09/07 02:16:15;;;;;;;7.50;6.80;;;;;;;;;;4989887;28;20049;-77
2022/09/07 02:18:43;;;;;;;7.70;7.00;;;;;;;;;;4980998;28;20113;-77
2022/09/07 02:21:11;;;;;;;9.05;7.78;;;;;;;;;;5009646;28;20051;-77
2022/09/07 02:23:44;;;;;;;7.38;6.78;;;;;;;;;;5053992;28;20051;-75
2022/09/07 02:26:13;;;;;;;8.13;7.43;;;;;;;;;;5057076;28;20029;-76
2022/09/07 02:28:39;;;;;;;7.43;6.80;;;;;;;;;;5059704;28;20032;-76
2022/09/07 02:31:04;;;;;;;7.85;7.15;;;;;;;;;;5058439;28;20131;-76
2022/09/07 02:33:30;;;;;;;7.68;6.97;;;;;;;;;;5045546;28;21667;-76
2022/09/07 02:35:56;;;;;;;7.97;6.88;;;;;;;;;;5042035;28;20032;-78
2022/09/07 02:38:21;;;;;;;8.38;7.18;;;;;;;;;;5044342;28;20111;-75
2022/09/07 02:40:51;;;;;;;8.35;7.40;;;;;;;;;;5053948;28;20462;-77
2022/09/07 02:43:16;;;;;;;;;;;;;;;;;;5058399;28;20057;-78
2022/09/07 02:46:00;;;;;;;8.70;7.07;;;;;;;;;;5054969;28;19927;-79
2022/09/07 02:48:44;;;;;;;7.35;6.55;;;;;;;;;;5044711;28;20029;-76
2022/09/07 02:51:18;;;;;;;9.07;7.72;;;;;;;;;;5054914;28;20033;-75
2022/09/07 02:53:58;;;;;;;8.05;7.22;;;;;;;;;;5047063;28;20051;-75
2022/09/07 02:56:33;;;;;;;10.85;7.13;;;;;;;;;;5051465;28;20039;-78
2022/09/07 02:59:34;;;;;;;7.55;6.85;;;;;;;;;;5055772;28;20060;-77
2022/09/07 03:02:14;;;;;;;7.35;6.75;;;;;;;;;;4948006;28;20038;-78
2022/09/07 03:04:39;;;;;;;8.82;7.35;;;;;;;;;;4947327;28;20070;-77
2022/09/07 03:07:23;;;;;;;8.32;7.50;;;;;;;;;;4939074;28;20042;-78
2022/09/07 03:09:52;;;;;;;8.15;6.75;;;;;;;;;;4955655;28;20034;-76
2022/09/07 03:12:18;;;;;;;8.10;7.30;;;;;;;;;;4948238;28;20041;-76
2022/09/07 03:14:43;;;;;;;8.07;7.20;;;;;;;;;;4956629;28;20030;-76
2022/09/07 03:17:09;;;;;;;7.60;6.85;;;;;;;;;;4953503;28;20435;-77
2022/09/07 03:19:35;;;;;;;8.30;7.35;;;;;;;;;;4947810;28;20049;-77
2022/09/07 03:22:00;;;;;;;7.65;6.90;;;;;;;;;;4949117;28;20060;-77
2022/09/07 03:24:26;;;;;;;8.80;6.90;;;;;;;;;;4951829;28;20374;-76
2022/09/07 03:26:51;;;;;;;7.78;6.78;;;;;;;;;;4956969;28;20414;-77
2022/09/07 03:29:17;;;;;;;8.00;7.20;;;;;;;;;;4956859;28;20054;-77
2022/09/07 03:31:42;;;;;;;9.35;7.82;;;;;;;;;;4957059;28;20382;-78
2022/09/07 03:34:07;;;;;;;8.20;7.50;;;;;;;;;;4946000;28;20093;-77
2022/09/07 03:36:33;;;;;;;8.25;7.00;;;;;;;;;;5024871;28;20028;-76
2022/09/07 03:38:58;;;;;;;7.75;6.97;;;;;;;;;;5040747;28;20322;-80
2022/09/07 03:41:27;;;;;;;8.68;7.80;;;;;;;;;;5054978;28;20028;-76
2022/09/07 03:43:52;;;;;;;7.80;7.10;;;;;;;;;;5054492;28;20048;-77
2022/09/07 03:46:18;;;;;;;7.90;7.10;;;;;;;;;;5054918;28;20025;-78
2022/09/07 03:48:44;;;;;;;8.05;7.35;;;;;;;;;;5045539;28;20590;-79
2022/09/07 03:51:10;;;;;;;8.07;7.32;;;;;;;;;;5050028;28;20025;-75
2022/09/07 03:53:36;;;;;;;8.48;7.68;;;;;;;;;;5051045;28;20021;-76
2022/09/07 03:56:03;;;;;;;8.13;7.32;;;;;;;;;;5052735;28;20025;-76
2022/09/07 03:58:29;;;;;;;8.82;6.78;;;;;;;;;;5054519;28;20044;-76
2022/09/07 04:00:55;;;;;;;8.35;7.53;;;;;;;;;;5054672;28;20020;-77
2022/09/07 04:03:20;;;;;;;8.90;8.05;;;;;;;;;;5046583;28;20051;-78
2022/09/07 04:05:46;;;;;;;8.65;7.80;;;;;;;;;;5038385;28;20069;-75
2022/09/07 04:08:11;;;;;;;8.68;6.88;;;;;;;;;;5041451;28;20459;-77
2022/09/07 04:10:38;;;;;;;8.65;7.55;;;;;;;;;;5046678;28;20033;-77
2022/09/07 04:13:03;;;;;;;8.60;7.43;;;;;;;;;;5054358;28;20029;-75
2022/09/07 04:15:28;;;;;;;8.48;7.47;;;;;;;;;;5060037;28;20044;-76
2022/09/07 04:17:54;;;;;;;8.02;6.85;;;;;;;;;;5059946;28;20177;-74
2022/09/07 04:20:19;;;;;;;7.85;7.13;;;;;;;;;;5045179;28;20032;-74
2022/09/07 04:22:46;;;;;;;7.97;7.25;;;;;;;;;;5055002;28;20067;-75
2022/09/07 04:25:12;;;;;;;7.97;7.00;;;;;;;;;;5059013;28;20032;-72
2022/09/07 04:27:37;;;;;;;10.27;8.05;;;;;;;;;;5058963;28;20443;-73
2022/09/07 04:30:03;;;;;;;8.48;7.68;;;;;;;;;;5059821;28;20024;-76
2022/09/07 04:32:28;;;;;;;8.18;7.43;;;;;;;;;;5062183;28;20407;-76
2022/09/07 04:34:53;;;;;;;9.55;6.90;;;;;;;;;;5041400;28;20413;-77
2022/09/07 04:37:19;;;;;;;7.70;6.95;;;;;;;;;;5045794;28;20040;-77
2022/09/07 04:39:44;;;;;;;7.57;6.88;;;;;;;;;;5044437;28;20493;-74
2022/09/07 04:42:10;;;;;;;8.38;7.50;;;;;;;;;;5040356;28;20049;-75
2022/09/07 04:44:35;;;;;;;8.05;7.15;;;;;;;;;;5042255;28;20359;-75
2022/09/07 04:47:03;;;;;;;8.45;6.78;;;;;;;;;;5047298;28;20048;-77
2022/09/07 04:49:28;;;;;;;8.20;7.40;;;;;;;;;;5052168;28;20035;-76
2022/09/07 04:51:54;;;;;;;7.38;6.78;;;;;;;;;;5059562;28;20037;-77
2022/09/07 04:54:19;;;;;;;8.45;7.13;;;;;;;;;;5058830;28;20020;-78
2022/09/07 04:56:45;;;;;;;7.47;6.68;;;;;;;;;;5058662;28;20037;-76
2022/09/07 04:59:10;;;;;;;10.02;7.28;;;;;;;;;;5059834;28;20434;-78
2022/09/07 05:01:35;;;;;;;7.95;7.15;;;;;;;;;;5041334;28;20031;-77
2022/09/07 05:04:01;;;;;;;8.70;7.15;;;;;;;;;;5045833;28;20113;-76
2022/09/07 05:06:27;;;;;;;8.02;7.32;;;;;;;;;;5047248;28;20753;-75
2022/09/07 05:08:53;;;;;;;8.30;7.50;;;;;;;;;;5059315;28;20046;-76
2022/09/07 05:11:19;;;;;;;9.82;7.68;;;;;;;;;;5057433;28;20039;-74
2022/09/07 05:13:45;;;;;;;8.05;7.35;;;;;;;;;;5061811;28;20024;-75
2022/09/07 05:16:12;;;;;;;8.55;7.65;;;;;;;;;;5059888;28;20364;-75
2022/09/07 05:18:37;;;;;;;12.93;7.85;;;;;;;;;;5058557;28;20043;-74
2022/09/07 05:21:22;;;;;;;9.05;8.15;;;;;;;;;;5061419;28;20032;-75
2022/09/07 05:23:49;;;;;;;8.50;7.72;;;;;;;;;;5058300;28;20031;-75
2022/09/07 05:26:14;;;;;;;9.32;7.95;;;;;;;;;;5058917;28;20419;-74
2022/09/07 05:28:40;;;;;;;8.65;7.95;;;;;;;;;;5060758;28;20040;-76
2022/09/07 05:31:06;;;;;;;7.90;7.28;;;;;;;;;;5060156;28;20400;-76
2022/09/07 05:33:31;;;;;;;9.25;7.40;;;;;;;;;;5061031;28;20016;-77
2022/09/07 05:35:57;;;;;;;10.35;7.82;;;;;;;;;;5058414;28;20035;-78
2022/09/07 05:38:24;;;;;;;9.57;7.43;;;;;;;;;;5061987;28;20067;-76
2022/09/07 05:40:50;;;;;;;9.32;8.52;;;;;;;;;;5058270;28;20052;-76
2022/09/07 05:43:15;;;;;;;10.77;9.30;;;;;;;;;;5058792;28;20092;-74
2022/09/07 05:45:40;;;;;;;10.77;8.52;;;;;;;;;;5057705;28;20574;-76
2022/09/07 05:48:06;;;;;;;8.43;7.65;;;;;;;;;;5059677;28;20409;-76
2022/09/07 05:50:31;;;;;;;8.25;7.45;;;;;;;;;;5060066;28;20424;-77
2022/09/07 05:52:57;;;;;;;8.55;7.75;;;;;;;;;;5055404;28;20035;-78
2022/09/07 05:55:23;;;;;;;7.82;7.15;;;;;;;;;;5059709;28;20033;-77
2022/09/07 05:57:48;;;;;;;8.43;7.63;;;;;;;;;;5056912;28;20466;-76
2022/09/07 06:00:14;;;;;;;8.65;7.78;;;;;;;;;;5058090;28;20426;-75
2022/09/07 06:02:39;;;;;;;10.02;8.50;;;;;;;;;;5057646;28;20020;-76
2022/09/07 06:05:05;;;;;;;10.60;8.10;;;;;;;;;;5059311;28;20044;-77
2022/09/07 06:07:30;;;;;;;7.85;7.20;;;;;;;;;;5055269;28;20378;-76
2022/09/07 06:09:56;;;;;;;8.20;7.40;;;;;;;;;;5060739;28;20025;-78
2022/09/07 06:12:21;;;;;;;8.55;7.80;;;;;;;;;;5058877;28;20454;-76
2022/09/07 06:14:46;;;;;;;8.27;7.47;;;;;;;;;;5057363;28;20028;-76
2022/09/07 06:17:12;;;;;;;7.95;7.25;;;;;;;;;;5058493;28;20042;-75
2022/09/07 06:19:37;;;;;;;7.65;6.95;;;;;;;;;;5060304;28;20733;-77
2022/09/07 06:22:03;;;;;;;10.30;8.10;;;;;;;;;;5059450;28;20017;-75
2022/09/07 06:24:28;;;;;;;7.22;6.63;;;;;;;;;;5060258;28;20113;-78
2022/09/07 06:26:54;;;;;;;10.38;7.38;;;;;;;;;;5057586;28;20070;-78
2022/09/07 06:29:19;;;;;;;6.93;6.22;;;;;;;;;;5059515;28;20277;-76
2022/09/07 06:31:44;;;;;;;7.07;6.15;;;;;;;;;;5059115;28;20153;-75
2022/09/07 06:34:10;;;;;;;7.65;6.95;;;;;;;;;;5059604;28;20024;-77
2022/09/07 06:36:35;;;;;;;6.80;6.20;;;;;;;;;;5058277;28;20067;-75
2022/09/07 06:39:01;;;;;;;6.57;5.97;;;;;;;;;;5060033;28;20047;-77
2022/09/07 06:41:27;;;;;;;9.52;5.43;;;;;;;;;;5058537;28;20033;-77
2022/09/07 06:43:53;;;;;;;7.05;5.75;;;;;;;;;;5060228;28;20076;-77
2022/09/07 06:46:19;;;;;;;5.90;5.40;;;;;;;;;;5059708;28;20425;-77
2022/09/07 06:48:44;;;;;;;6.03;5.43;;;;;;;;;;5059619;28;20039;-77
2022/09/07 06:51:10;;;;;;;5.95;5.35;;;;;;;;;;5057097;28;20074;-76
2022/09/07 06:53:36;;;;;;;5.75;5.25;;;;;;;;;;5059612;28;20081;-76
2022/09/07 06:56:04;;;;;;;6.30;5.70;;;;;;;;;;5060182;28;21196;-76
2022/09/07 06:58:29;;;;;;;5.95;5.20;;;;;;;;;;5057368;28;20328;-76
2022/09/07 07:00:55;;;;;;;7.10;6.03;;;;;;;;;;5059210;28;20090;-76
2022/09/07 07:03:20;;;;;;;6.85;5.25;;;;;;;;;;5057014;28;20029;-77
2022/09/07 07:05:53;;;;;;;9.98;5.70;;;;;;;;;;5058538;28;20044;-77
2022/09/07 07:08:19;;;;;;;10.25;6.80;;;;;;;;;;5056603;28;20043;-78
2022/09/07 07:10:44;;;;;;;8.23;6.72;;;;;;;;;;5057291;28;20025;-77
2022/09/07 07:13:10;;;;;;;10.23;6.43;;;;;;;;;;5058156;28;20344;-77
2022/09/07 07:15:35;;;;;;;7.45;5.72;;;;;;;;;;5058405;28;20445;-77
2022/09/07 07:18:01;;;;;;;9.38;6.05;;;;;;;;;;5056101;28;20036;-77
2022/09/07 07:20:26;;;;;;;8.27;5.82;;;;;;;;;;5059930;28;20033;-76
2022/09/07 07:22:52;;;;;;;8.55;7.22;;;;;;;;;;5059395;28;20034;-78
2022/09/07 07:25:17;;;;;;;8.30;6.60;;;;;;;;;;5058778;28;20039;-77
2022/09/07 07:27:44;;;;;;;11.07;8.05;;;;;;;;;;5058949;28;20047;-77
2022/09/07 07:30:10;;;;;;;10.45;6.82;;;;;;;;;;5058164;28;20385;-75
2022/09/07 07:32:36;;;;;;;6.53;5.57;;;;;;;;;;5057328;28;20021;-77
2022/09/07 07:35:01;;;;;;;8.18;6.07;;;;;;;;;;5060052;28;20085;-76
2022/09/07 07:37:26;;;;;;;5.93;5.10;;;;;;;;;;5057013;28;20025;-75
2022/09/07 07:39:52;;;;;;;8.27;5.10;;;;;;;;;;5058449;28;20032;-77
2022/09/07 07:42:17;;;;;;;5.93;5.32;;;;;;;;;;5057588;28;20106;-74
2022/09/07 07:44:43;;;;;;;8.45;5.00;;;;;;;;;;5056572;28;20029;-75
2022/09/07 07:47:08;;;;;;;6.68;5.75;;;;;;;;;;5057558;28;20060;-75
2022/09/07 07:49:34;;;;;;;5.00;4.50;;;;;;;;;;5057372;28;20485;-74
2022/09/07 07:51:59;;;;;;;4.88;4.38;;;;;;;;;;5051175;28;20020;-76
2022/09/07 07:54:25;;;;;;;4.70;3.90;;;;;;;;;;5043530;28;20028;-76
2022/09/07 07:56:50;;;;;;;3.95;3.50;;;;;;;;;;5058743;28;20070;-77
2022/09/07 07:59:15;;;;;;;3.88;3.58;;;;;;;;;;5058755;28;20024;-77
2022/09/07 08:01:42;;;;;;;7.07;3.55;;;;;;;;;;5056743;28;20024;-75
2022/09/07 08:04:07;;;;;;;4.03;3.47;;;;;;;;;;5057461;28;20036;-77
2022/09/07 08:06:33;;;;;;;3.35;3.13;;;;;;;;;;5056854;28;20130;-78
2022/09/07 08:08:58;;;;;;;3.78;3.47;;;;;;;;;;5059424;28;20028;-77
2022/09/07 08:11:25;;;;;;;6.00;3.30;;;;;;;;;;5057262;28;20026;-77
2022/09/07 08:13:51;;;;;;;3.25;3.00;;;;;;;;;;5057081;28;20070;-77
2022/09/07 08:16:17;;;;;;;3.40;2.95;;;;;;;;;;5057252;28;20024;-77
2022/09/07 08:18:42;;;;;;;2.80;2.58;;;;;;;;;;5059557;28;20458;-77
2022/09/07 08:21:14;;;;;;;5.22;4.38;;;;;;;;;;5056504;28;20043;-77
2022/09/07 08:23:40;;;;;;;23.23;21.10;;;;;;;;;;5056565;28;20060;-76
2022/09/07 08:26:06;;;;;;;7.40;6.75;;;;;;;;;;5056914;28;20133;-77
2022/09/07 08:28:33;;;;;;;11.77;10.70;;;;;;;;;;5044163;28;20058;-78
2022/09/07 08:31:02;;;;;;;9.45;8.38;;;;;;;;;;5050616;28;20024;-79
2022/09/07 08:33:27;;;;;;;4.70;3.53;;;;;;;;;;5042203;28;20427;-77
2022/09/07 08:35:57;;;;;;;3.60;3.13;;;;;;;;;;5059813;28;20032;-79
2022/09/07 08:38:23;;;;;;;3.85;3.55;;;;;;;;;;5056246;28;20466;-79
2022/09/07 08:40:48;;;;;;;3.80;3.45;;;;;;;;;;5058148;28;20028;-77
2022/09/07 08:43:13;;;;;;;5.18;4.78;;;;;;;;;;5058749;28;20105;-77
2022/09/07 08:45:42;;;;;;;4.22;3.83;;;;;;;;;;5060602;28;20029;-78
2022/09/07 08:48:08;;;;;;;5.60;3.67;;;;;;;;;;5060936;28;20059;-78
2022/09/07 08:50:44;;;;;;;4.75;3.88;;;;;;;;;;5061090;28;20359;-76
2022/09/07 08:53:17;;;;;;;10.07;9.07;;;;;;;;;;5062772;28;20458;-76
2022/09/07 08:55:42;;;;;;;6.20;5.65;;;;;;;;;;5061662;28;20403;-77
2022/09/07 08:58:16;;;;;;;3.17;2.88;;;;;;;;;;5061446;28;20119;-77
2022/09/07 09:00:42;;;;;;;3.33;2.75;;;;;;;;;;5061010;28;20028;-74
2022/09/07 09:03:20;;;;;;;6.10;5.15;;;;;;;;;;5060746;28;20032;-76
2022/09/07 09:05:57;;;;;;;4.05;3.65;;;;;;;;;;5060296;28;20029;-78
2022/09/07 09:08:39;;;;;;;5.38;4.10;;;;;;;;;;5058957;28;20044;-79
2022/09/07 09:11:12;;;;;;;3.72;3.42;;;;;;;;;;5061419;28;20024;-78
2022/09/07 09:13:38;;;;;;;4.63;2.70;;;;;;;;;;5062334;28;20024;-77
2022/09/07 09:16:04;;;;;;;5.07;4.68;;;;;;;;;;5062015;28;20102;-76
2022/09/07 09:18:45;;;;;;;4.00;3.30;;;;;;;;;;5059544;28;20060;-77
2022/09/07 09:21:15;;;;;;;5.82;2.50;;;;;;;;;;5062934;28;20106;-77
2022/09/07 09:23:41;;;;;;;4.50;3.92;;;;;;;;;;5060901;28;20033;-76
2022/09/07 09:26:13;;;;;;;3.70;3.25;;;;;;;;;;5058888;28;20070;-76
2022/09/07 09:28:39;;;;;;;5.35;2.78;;;;;;;;;;5060369;28;20166;-77
2022/09/07 09:31:04;;;;;;;2.55;2.35;;;;;;;;;;5060655;28;20119;-80
2022/09/07 09:33:30;;;;;;;3.28;3.08;;;;;;;;;;5059745;28;20032;-78
2022/09/07 09:35:57;;;;;;;3.80;3.45;;;;;;;;;;5060238;28;20056;-76
2022/09/07 09:38:29;;;;;;;6.88;4.50;;;;;;;;;;5059922;28;20025;-79
2022/09/07 09:40:55;;;;;;;8.07;7.07;;;;;;;;;;5059758;28;20037;-76
2022/09/07 09:43:23;;;;;;;3.92;3.40;;;;;;;;;;5062190;28;20048;-79
2022/09/07 09:45:53;;;;;;;5.20;4.38;;;;;;;;;;5051900;28;20040;-77
2022/09/07 09:48:21;;;;;;;5.30;3.40;;;;;;;;;;5046801;28;20033;-81
2022/09/07 09:50:50;;;;;;;3.83;2.80;;;;;;;;;;5061814;28;20073;-79
2022/09/07 09:53:22;;;;;;;5.70;5.17;;;;;;;;;;5062366;28;20036;-77
2022/09/07 09:55:50;;;;;;;4.05;3.75;;;;;;;;;;5057860;28;20111;-77
2022/09/07 09:58:29;;;;;;;3.00;2.70;;;;;;;;;;5058695;28;20090;-80
2022/09/07 10:00:56;;;;;;;4.18;2.70;;;;;;;;;;5046511;28;20078;-77
2022/09/07 10:03:24;;;;;;;5.22;4.72;;;;;;;;;;5052485;28;20044;-81
2022/09/07 10:05:49;;;;;;;4.00;3.60;;;;;;;;;;5049974;28;20025;-77
2022/09/07 10:08:16;;;;;;;5.32;2.75;;;;;;;;;;5051557;28;20035;-79
2022/09/07 10:10:49;;;;;;;2.78;2.58;;;;;;;;;;5058966;28;20016;-78
2022/09/07 10:13:26;;;;;;;2.88;2.67;;;;;;;;;;5039667;28;20099;-77
2022/09/07 10:15:53;;;;;;;11.50;10.35;;;;;;;;;;5059960;28;20370;-79
2022/09/07 10:18:21;;;;;;;3.78;3.42;;;;;;;;;;5058898;28;20454;-82
2022/09/07 10:20:47;;;;;;;3.58;3.13;;;;;;;;;;5058039;28;20094;-78
2022/09/07 10:23:23;;;;;;;4.00;2.90;;;;;;;;;;5060683;28;20036;-80
2022/09/07 10:25:48;;;;;;;3.92;3.00;;;;;;;;;;5059445;28;20504;-77
2022/09/07 10:28:19;;;;;;;3.60;3.25;;;;;;;;;;5059295;28;20028;-79
2022/09/07 10:30:51;;;;;;;3.35;2.90;;;;;;;;;;5040076;28;20028;-78
2022/09/07 10:33:35;;;;;;;9.13;7.45;;;;;;;;;;5059605;28;20035;-78
2022/09/07 10:36:14;;;;;;;3.90;3.60;;;;;;;;;;5058325;28;20034;-80
2022/09/07 10:38:44;;;;;;;4.95;2.67;;;;;;;;;;5059467;28;20089;-78
2022/09/07 10:41:10;;;;;;;3.15;2.88;;;;;;;;;;5046713;28;20122;-77
2022/09/07 10:43:43;;;;;;;2.75;2.55;;;;;;;;;;5053103;28;20086;-77
2022/09/07 10:46:11;;;;;;;2.47;2.30;;;;;;;;;;5051909;28;20434;-78
2022/09/07 10:48:36;;;;;;;4.07;3.72;;;;;;;;;;5038370;28;20036;-82
2022/09/07 10:51:03;;;;;;;5.15;3.90;;;;;;;;;;5054965;28;20033;-79
2022/09/07 10:53:47;;;;;;;5.65;4.30;;;;;;;;;;5056007;28;20032;-76
2022/09/07 10:56:22;;;;;;;4.55;3.17;;;;;;;;;;5036408;28;20032;-78
2022/09/07 10:59:03;;;;;;;4.30;3.28;;;;;;;;;;5037954;28;20032;-77
2022/09/07 11:01:32;;;;;;;3.42;3.13;;;;;;;;;;5036302;28;20529;-78
2022/09/07 11:04:04;;;;;;;3.40;3.10;;;;;;;;;;5038551;28;20037;-76
2022/09/07 11:06:40;;;;;;;3.72;2.65;;;;;;;;;;5041743;28;20037;-77
2022/09/07 11:09:24;;;;;;;3.08;2.83;;;;;;;;;;5053265;28;20392;-79
2022/09/07 11:11:55;;;;;;;3.45;3.22;;;;;;;;;;5056022;28;20103;-78
2022/09/07 11:14:23;;;;;;;4.90;3.35;;;;;;;;;;5056546;28;20043;-77
2022/09/07 11:16:57;;;;;;;3.47;3.22;;;;;;;;;;5057042;28;20027;-77
2022/09/07 11:19:31;;;;;;;3.85;3.22;;;;;;;;;;5054871;28;20032;-82
2022/09/07 11:22:02;;;;;;;5.03;3.10;;;;;;;;;;5057534;28;20020;-78
2022/09/07 11:24:32;;;;;;;4.53;3.13;;;;;;;;;;5039774;28;20549;-78
2022/09/07 11:27:00;;;;;;;3.60;3.30;;;;;;;;;;5039941;28;20099;-81
2022/09/07 11:29:33;;;;;;;3.72;3.20;;;;;;;;;;5039860;28;20063;-76
2022/09/07 11:32:02;;;;;;;3.65;3.35;;;;;;;;;;5056407;28;20422;-76
2022/09/07 11:34:27;;;;;;;;;;;;;;;;;;5056989;28;20483;-76
2022/09/07 11:36:55;;;;;;;3.60;3.30;;;;;;;;;;5047772;28;19977;-76
2022/09/07 11:39:25;;;;;;;4.03;2.88;;;;;;;;;;5047866;28;20032;-76
2022/09/07 11:41:56;;;;;;;3.50;3.20;;;;;;;;;;5040503;28;20024;-76
2022/09/07 11:44:42;;;;;;;4.47;4.07;;;;;;;;;;5036060;28;20033;-78
2022/09/07 11:47:10;;;;;;;3.63;3.33;;;;;;;;;;5058265;28;20367;-76
2022/09/07 11:49:36;;;;;;;3.72;3.47;;;;;;;;;;5059772;28;20103;-76
2022/09/07 11:52:01;;;;;;;14.75;10.52;;;;;;;;;;5038445;28;20112;-77
2022/09/07 11:54:29;;;;;;;16.63;13.65;;;;;;;;;;5038194;28;20037;-78
2022/09/07 11:56:59;;;;;;;16.08;13.60;;;;;;;;;;5045839;28;20047;-76
2022/09/07 11:59:43;;;;;;;15.18;13.75;;;;;;;;;;5051744;28;20029;-78
2022/09/07 12:02:08;;;;;;;5.10;4.65;;;;;;;;;;5053047;28;20114;-78
2022/09/07 12:04:41;;;;;;;4.10;3.80;;;;;;;;;;5059745;28;20060;-76
2022/09/07 12:07:09;;;;;;;3.75;3.45;;;;;;;;;;5056477;28;20028;-77
2022/09/07 12:09:34;;;;;;;4.05;3.33;;;;;;;;;;5058517;28;20391;-76
2022/09/07 12:12:00;;;;;;;14.07;11.40;;;;;;;;;;5037034;28;20083;-77
2022/09/07 12:14:25;;;;;;;10.18;9.18;;;;;;;;;;5033075;28;20493;-76
2022/09/07 12:16:54;;;;;;;5.05;4.65;;;;;;;;;;5032760;28;20372;-77
2022/09/07 12:19:21;;;;;;;4.80;4.40;;;;;;;;;;5035291;28;20025;-76
2022/09/07 12:21:46;;;;;;;6.03;4.00;;;;;;;;;;5040190;28;20075;-76
2022/09/07 12:24:35;;;;;;;4.18;3.65;;;;;;;;;;5037283;28;20062;-78
2022/09/07 12:27:18;;;;;;;3.97;3.67;;;;;;;;;;5028913;28;20067;-74
2022/09/07 12:29:45;;;;;;;3.70;3.50;;;;;;;;;;5049569;28;20443;-81
2022/09/07 12:32:10;;;;;;;3.92;3.63;;;;;;;;;;5047482;28;20044;-77
2022/09/07 12:34:37;;;;;;;5.95;5.38;;;;;;;;;;5042047;28;20696;-77
2022/09/07 12:37:22;;;;;;;5.82;5.22;;;;;;;;;;5043316;28;20477;-75
2022/09/07 12:39:48;;;;;;;3.80;3.60;;;;;;;;;;5029584;28;20048;-77
2022/09/07 12:42:20;;;;;;;3.60;3.30;;;;;;;;;;5041764;28;20041;-78
2022/09/07 12:44:46;;;;;;;3.50;3.15;;;;;;;;;;5046898;28;20017;-75
2022/09/07 12:47:11;;;;;;;3.58;3.22;;;;;;;;;;5056879;28;20044;-76
2022/09/07 12:49:49;;;;;;;3.28;3.08;;;;;;;;;;5058210;28;21083;-75
2022/09/07 12:52:35;;;;;;;5.93;5.43;;;;;;;;;;5055793;28;20428;-75
2022/09/07 12:55:07;;;;;;;3.60;3.40;;;;;;;;;;5052350;28;20451;-75
2022/09/07 12:57:32;;;;;;;3.90;3.60;;;;;;;;;;5047454;28;20044;-76
2022/09/07 13:00:24;;;;;;;3.45;3.13;;;;;;;;;;5038816;28;20433;-76
2022/09/07 13:02:50;;;;;;;3.58;3.38;;;;;;;;;;5049755;28;20101;-83
2022/09/07 13:05:34;;;;;;;6.13;3.05;;;;;;;;;;5058945;28;20029;-82
2022/09/07 13:08:02;;;;;;;3.30;3.00;;;;;;;;;;5055820;28;20131;-81
2022/09/07 13:10:31;;;;;;;7.03;3.10;;;;;;;;;;5043666;28;20037;-78
2022/09/07 13:13:19;;;;;;;2.80;2.60;;;;;;;;;;5057245;28;20119;-78
2022/09/07 13:15:48;;;;;;;2.80;2.60;;;;;;;;;;5058570;28;20028;-80
2022/09/07 13:18:26;;;;;;;2.90;2.70;;;;;;;;;;5060468;28;20143;-82
2022/09/07 13:21:07;;;;;;;4.90;3.00;;;;;;;;;;5046890;28;20032;-76
2022/09/07 13:23:33;;;;;;;3.10;2.90;;;;;;;;;;5053154;28;20261;-75
2022/09/07 13:26:00;;;;;;;3.28;2.97;;;;;;;;;;5059108;28;20063;-79
2022/09/07 13:28:27;;;;;;;2.83;2.63;;;;;;;;;;5048694;28;20116;-79
2022/09/07 13:31:08;;;;;;;3.33;2.65;;;;;;;;;;5038997;28;20024;-75
2022/09/07 13:33:33;;;;;;;6.13;2.80;;;;;;;;;;5055704;28;20038;-76
2022/09/07 13:36:00;;;;;;;3.10;2.80;;;;;;;;;;5060006;28;20029;-76
2022/09/07 13:38:26;;;;;;;3.63;2.65;;;;;;;;;;5060418;28;20346;-77
2022/09/07 13:40:53;;;;;;;3.47;3.03;;;;;;;;;;5041960;28;20037;-77
2022/09/07 13:43:19;;;;;;;5.00;2.97;;;;;;;;;;5058416;28;20136;-78
2022/09/07 13:45:56;;;;;;;3.10;2.90;;;;;;;;;;5041502;28;20024;-77
2022/09/07 13:48:22;;;;;;;3.10;2.90;;;;;;;;;;5039411;28;20157;-75
2022/09/07 13:51:06;;;;;;;3.20;2.70;;;;;;;;;;5046188;28;20439;-78
2022/09/07 13:53:37;;;;;;;2.85;2.65;;;;;;;;;;5040726;28;20630;-77
2022/09/07 13:56:15;;;;;;;5.50;2.80;;;;;;;;;;5041962;28;22514;-75
2022/09/07 13:58:46;;;;;;;3.10;2.90;;;;;;;;;;5041085;28;20083;-75
2022/09/07 14:01:11;;;;;;;3.10;2.63;;;;;;;;;;5042344;28;20044;-78
2022/09/07 14:03:46;;;;;;;3.00;2.80;;;;;;;;;;5041467;28;20024;-79
2022/09/07 14:06:16;;;;;;;2.97;2.78;;;;;;;;;;5042080;28;20100;-76
2022/09/07 14:08:45;;;;;;;3.60;2.88;;;;;;;;;;5044004;28;20439;-79
2022/09/07 14:11:17;;;;;;;3.00;2.80;;;;;;;;;;5043114;28;20035;-81
2022/09/07 14:13:42;;;;;;;3.72;3.45;;;;;;;;;;5042042;28;20087;-75
2022/09/07 14:16:08;;;;;;;4.35;3.70;;;;;;;;;;5043024;28;20029;-76
2022/09/07 14:18:33;;;;;;;4.70;3.72;;;;;;;;;;5038590;28;20028;-78
2022/09/07 14:20:58;;;;;;;4.22;3.92;;;;;;;;;;5039196;28;20024;-77
2022/09/07 14:23:29;;;;;;;4.65;3.75;;;;;;;;;;5059499;28;20718;-78
2022/09/07 14:26:28;;;;;;;3.72;3.42;;;;;;;;;;5059421;28;20632;-76
2022/09/07 14:28:55;;;;;;;3.30;3.10;;;;;;;;;;4986818;28;20042;-76
2022/09/07 14:31:22;;;;;;;3.22;3.03;;;;;;;;;;4984168;28;20050;-76
2022/09/07 14:33:51;;;;;;;3.55;3.00;;;;;;;;;;4981956;28;21242;-77
2022/09/07 14:36:18;;;;;;;3.30;2.85;;;;;;;;;;4981345;28;20037;-74
2022/09/07 14:38:44;;;;;;;2.72;2.60;;;;;;;;;;4981540;28;20048;-75
2022/09/07 14:41:12;;;;;;;4.15;3.35;;;;;;;;;;4980889;28;20060;-76
2022/09/07 14:43:38;;;;;;;3.72;3.42;;;;;;;;;;4980482;28;20046;-77
2022/09/07 14:46:06;;;;;;;3.72;2.85;;;;;;;;;;4981574;28;20062;-75
2022/09/07 14:48:32;;;;;;;4.25;2.95;;;;;;;;;;4978283;28;20069;-77
2022/09/07 14:50:57;;;;;;;3.03;2.80;;;;;;;;;;4979978;28;20121;-76
2022/09/07 14:53:23;;;;;;;3.28;3.03;;;;;;;;;;4982606;28;20042;-76